Time;durP1;ratioP1;P1;durP2;ratioP2;P2;SDS_P1;SDS_P2;PMS_P1;PMS_P2;Temp;Humidity;BMP_temperature;BMP_pressure;BME280_temperature;BME280_humidity;BME280_pressure;Samples;Min_cycle;Max_cycle;Signal;HPM_P1;HPM_P2
2023/04/12 00:02:16;;;;;;;13.55;3.13;;;;;;;;;;5035001;28;20048;-76
2023/04/12 00:04:42;;;;;;;8.77;2.67;;;;;;;;;;5032820;28;20444;-76
2023/04/12 00:07:08;;;;;;;9.18;2.80;;;;;;;;;;5044039;28;20048;-76
2023/04/12 00:09:35;;;;;;;14.57;3.38;;;;;;;;;;5052596;28;20052;-76
2023/04/12 00:12:01;;;;;;;8.85;2.72;;;;;;;;;;5052636;28;20044;-76
2023/04/12 00:14:28;;;;;;;9.35;2.80;;;;;;;;;;5047572;28;20064;-76
2023/04/12 00:16:54;;;;;;;9.43;3.10;;;;;;;;;;5049097;28;20079;-76
2023/04/12 00:19:20;;;;;;;12.73;3.08;;;;;;;;;;5051779;28;20041;-75
2023/04/12 00:21:46;;;;;;;12.18;2.95;;;;;;;;;;5052368;28;20045;-76
2023/04/12 00:24:12;;;;;;;10.60;3.53;;;;;;;;;;5051125;28;20131;-76
2023/04/12 00:26:39;;;;;;;9.93;2.90;;;;;;;;;;5051263;28;20037;-76
2023/04/12 00:29:05;;;;;;;11.77;3.08;;;;;;;;;;5044373;28;20055;-76
2023/04/12 00:31:31;;;;;;;10.27;3.20;;;;;;;;;;5051314;28;20045;-76
2023/04/12 00:33:57;;;;;;;15.55;2.95;;;;;;;;;;5042882;28;20056;-76
2023/04/12 00:36:23;;;;;;;11.10;3.33;;;;;;;;;;5049549;28;20063;-76
2023/04/12 00:38:49;;;;;;;9.98;3.38;;;;;;;;;;5050815;28;20132;-76
2023/04/12 00:41:15;;;;;;;9.07;2.80;;;;;;;;;;5045296;28;20462;-76
2023/04/12 00:43:41;;;;;;;10.27;3.10;;;;;;;;;;5051890;28;20072;-76
2023/04/12 00:46:07;;;;;;;9.75;2.97;;;;;;;;;;5051744;28;20092;-76
2023/04/12 00:48:34;;;;;;;11.77;3.25;;;;;;;;;;5051379;28;20500;-76
2023/04/12 00:51:00;;;;;;;13.27;2.97;;;;;;;;;;5042047;28;20119;-77
2023/04/12 00:53:26;;;;;;;11.05;2.90;;;;;;;;;;5034272;28;20041;-76
2023/04/12 00:55:53;;;;;;;9.60;2.85;;;;;;;;;;5051941;28;20049;-76
2023/04/12 00:58:23;;;;;;;12.77;3.03;;;;;;;;;;5046994;28;20373;-76
2023/04/12 01:00:51;;;;;;;8.20;2.97;;;;;;;;;;5052711;28;20041;-75
2023/04/12 01:03:26;;;;;;;12.73;3.20;;;;;;;;;;5033443;28;20075;-76
2023/04/12 01:06:04;;;;;;;10.55;3.33;;;;;;;;;;5056378;28;20087;-75
2023/04/12 01:08:39;;;;;;;12.05;3.35;;;;;;;;;;5055957;28;20052;-76
2023/04/12 01:11:28;;;;;;;10.83;3.13;;;;;;;;;;5056191;28;20063;-76
2023/04/12 01:13:57;;;;;;;8.65;2.80;;;;;;;;;;5056188;28;20045;-76
2023/04/12 01:16:29;;;;;;;10.80;2.72;;;;;;;;;;5055827;28;20438;-76
2023/04/12 01:18:59;;;;;;;13.77;3.13;;;;;;;;;;5038003;28;20121;-76
2023/04/12 01:21:38;;;;;;;9.68;2.83;;;;;;;;;;5054233;28;20059;-76
2023/04/12 01:24:23;;;;;;;11.27;2.60;;;;;;;;;;5055955;28;20052;-76
2023/04/12 01:26:50;;;;;;;7.30;3.00;;;;;;;;;;5053651;28;20056;-76
2023/04/12 01:29:21;;;;;;;12.75;3.53;;;;;;;;;;5055057;28;20049;-76
2023/04/12 01:31:52;;;;;;;6.68;2.60;;;;;;;;;;5052925;28;20434;-76
2023/04/12 01:34:19;;;;;;;9.02;2.88;;;;;;;;;;5054995;28;20049;-76
2023/04/12 01:36:48;;;;;;;9.65;2.80;;;;;;;;;;5051029;28;20052;-76
2023/04/12 01:39:14;;;;;;;7.63;2.97;;;;;;;;;;5046707;28;20051;-76
2023/04/12 01:41:47;;;;;;;10.43;2.90;;;;;;;;;;5055205;28;20116;-75
2023/04/12 01:44:14;;;;;;;10.38;3.30;;;;;;;;;;5048653;28;20045;-75
2023/04/12 01:46:41;;;;;;;8.68;2.85;;;;;;;;;;5053197;28;20489;-76
2023/04/12 01:49:07;;;;;;;10.07;3.15;;;;;;;;;;5036663;28;20045;-75
2023/04/12 01:51:48;;;;;;;8.48;3.00;;;;;;;;;;5052678;28;20048;-75
2023/04/12 01:54:18;;;;;;;12.13;3.03;;;;;;;;;;5054329;28;20052;-75
2023/04/12 01:56:46;;;;;;;7.75;2.75;;;;;;;;;;5055395;28;20448;-76
2023/04/12 01:59:14;;;;;;;10.85;3.05;;;;;;;;;;5020903;28;20528;-76
2023/04/12 02:01:40;;;;;;;7.63;2.85;;;;;;;;;;5055469;28;20102;-75
2023/04/12 02:04:07;;;;;;;8.80;3.72;;;;;;;;;;5055414;28;20389;-76
2023/04/12 02:06:34;;;;;;;11.15;2.85;;;;;;;;;;5055243;28;20037;-76
2023/04/12 02:09:01;;;;;;;10.65;3.00;;;;;;;;;;5054846;28;20544;-76
2023/04/12 02:11:27;;;;;;;10.85;3.50;;;;;;;;;;5049906;28;20044;-76
2023/04/12 02:13:53;;;;;;;9.25;2.90;;;;;;;;;;5054774;28;20055;-75
2023/04/12 02:16:21;;;;;;;11.65;3.20;;;;;;;;;;5048682;28;20127;-76
2023/04/12 02:18:47;;;;;;;9.10;3.30;;;;;;;;;;5055095;28;20098;-76
2023/04/12 02:21:13;;;;;;;10.13;2.70;;;;;;;;;;5030874;28;20067;-76
2023/04/12 02:23:42;;;;;;;12.88;3.58;;;;;;;;;;5054802;28;20037;-76
2023/04/12 02:26:09;;;;;;;8.35;2.95;;;;;;;;;;5046688;28;20040;-76
2023/04/12 02:28:37;;;;;;;9.95;3.35;;;;;;;;;;5036913;28;20526;-76
2023/04/12 02:31:03;;;;;;;10.75;3.10;;;;;;;;;;5046470;28;20053;-76
2023/04/12 02:33:29;;;;;;;9.70;3.03;;;;;;;;;;5062822;28;20037;-75
2023/04/12 02:36:01;;;;;;;8.65;2.80;;;;;;;;;;5049206;28;20125;-75
2023/04/12 02:38:27;;;;;;;10.35;3.42;;;;;;;;;;5035926;28;20048;-75
2023/04/12 02:40:54;;;;;;;7.53;3.10;;;;;;;;;;5036203;28;20053;-75
2023/04/12 02:43:20;;;;;;;8.30;3.13;;;;;;;;;;5053038;28;20405;-75
2023/04/12 02:45:47;;;;;;;8.98;2.83;;;;;;;;;;5052483;28;20485;-75
2023/04/12 02:48:13;;;;;;;9.80;2.80;;;;;;;;;;5052983;28;20442;-75
2023/04/12 02:50:39;;;;;;;7.88;2.90;;;;;;;;;;5047553;28;20148;-76
2023/04/12 02:53:05;;;;;;;9.60;2.97;;;;;;;;;;5052410;28;20036;-76
2023/04/12 02:55:31;;;;;;;9.57;2.90;;;;;;;;;;5053925;28;20550;-76
2023/04/12 02:57:57;;;;;;;9.82;2.95;;;;;;;;;;5053690;28;20041;-75
2023/04/12 03:00:23;;;;;;;10.60;2.90;;;;;;;;;;5047811;28;20045;-77
2023/04/12 03:02:50;;;;;;;10.98;2.80;;;;;;;;;;5052476;28;20041;-76
2023/04/12 03:05:16;;;;;;;9.50;2.90;;;;;;;;;;5030680;28;20397;-76
2023/04/12 03:07:42;;;;;;;9.70;3.10;;;;;;;;;;5053718;28;20123;-76
2023/04/12 03:10:10;;;;;;;7.32;2.90;;;;;;;;;;5053015;28;20045;-76
2023/04/12 03:12:36;;;;;;;8.45;2.75;;;;;;;;;;5049799;28;20236;-75
2023/04/12 03:15:03;;;;;;;8.52;2.90;;;;;;;;;;5052927;28;20474;-76
2023/04/12 03:17:29;;;;;;;6.53;2.47;;;;;;;;;;5048701;28;20049;-76
2023/04/12 03:19:57;;;;;;;8.23;2.80;;;;;;;;;;5051957;28;20049;-75
2023/04/12 03:22:24;;;;;;;9.63;2.65;;;;;;;;;;5053071;28;20076;-76
2023/04/12 03:24:50;;;;;;;10.63;3.22;;;;;;;;;;5050968;28;20409;-76
2023/04/12 03:27:16;;;;;;;7.90;2.60;;;;;;;;;;5053149;28;20064;-76
2023/04/12 03:29:42;;;;;;;7.32;2.38;;;;;;;;;;5052777;28;20083;-76
2023/04/12 03:32:08;;;;;;;8.20;2.88;;;;;;;;;;5028705;28;20155;-76
2023/04/12 03:34:34;;;;;;;9.20;2.65;;;;;;;;;;5052777;28;20049;-75
2023/04/12 03:37:01;;;;;;;8.38;2.50;;;;;;;;;;5052784;28;20036;-76
2023/04/12 03:39:27;;;;;;;8.45;2.80;;;;;;;;;;5052733;28;20056;-75
2023/04/12 03:41:53;;;;;;;6.10;2.50;;;;;;;;;;5051531;28;20140;-75
2023/04/12 03:44:20;;;;;;;7.53;2.50;;;;;;;;;;5052841;28;20052;-75
2023/04/12 03:46:47;;;;;;;7.90;2.47;;;;;;;;;;5034899;28;20049;-74
2023/04/12 03:49:13;;;;;;;7.95;2.33;;;;;;;;;;5052164;28;20049;-75
2023/04/12 03:51:42;;;;;;;7.85;2.40;;;;;;;;;;5034889;28;20045;-75
2023/04/12 03:54:12;;;;;;;7.15;2.30;;;;;;;;;;5053098;28;20123;-74
2023/04/12 03:56:38;;;;;;;6.07;2.40;;;;;;;;;;5052942;28;20152;-74
2023/04/12 03:59:07;;;;;;;6.07;2.38;;;;;;;;;;5052776;28;20530;-74
2023/04/12 04:01:33;;;;;;;6.18;2.30;;;;;;;;;;5052942;28;20049;-75
2023/04/12 04:04:00;;;;;;;6.93;2.67;;;;;;;;;;5052139;28;20049;-75
2023/04/12 04:06:26;;;;;;;8.35;2.70;;;;;;;;;;5051390;28;20045;-75
2023/04/12 04:08:52;;;;;;;9.00;2.30;;;;;;;;;;5051228;28;20052;-74
2023/04/12 04:11:18;;;;;;;8.23;2.45;;;;;;;;;;5045527;28;20048;-75
2023/04/12 04:13:45;;;;;;;6.95;2.55;;;;;;;;;;5050701;28;20053;-75
2023/04/12 04:16:11;;;;;;;7.13;2.72;;;;;;;;;;5045488;28;20103;-75
2023/04/12 04:18:37;;;;;;;8.77;2.55;;;;;;;;;;5052638;28;20057;-75
2023/04/12 04:21:03;;;;;;;5.47;3.03;;;;;;;;;;5052225;28;20132;-75
2023/04/12 04:23:37;;;;;;;10.57;3.22;;;;;;;;;;5052277;28;20045;-75
2023/04/12 04:26:04;;;;;;;9.00;2.78;;;;;;;;;;5043331;28;20049;-75
2023/04/12 04:28:30;;;;;;;8.23;2.70;;;;;;;;;;5050527;28;20040;-75
2023/04/12 04:30:56;;;;;;;7.22;2.67;;;;;;;;;;5047008;28;20056;-76
2023/04/12 04:33:23;;;;;;;8.55;2.80;;;;;;;;;;5013260;28;20080;-75
2023/04/12 04:35:50;;;;;;;7.90;2.72;;;;;;;;;;5026347;28;20604;-75
2023/04/12 04:38:16;;;;;;;10.20;2.95;;;;;;;;;;5025847;28;20050;-75
2023/04/12 04:40:42;;;;;;;7.65;2.67;;;;;;;;;;5014315;28;20049;-75
2023/04/12 04:43:08;;;;;;;9.05;2.90;;;;;;;;;;5032160;28;20049;-75
2023/04/12 04:45:35;;;;;;;9.02;2.90;;;;;;;;;;5047543;28;20048;-75
2023/04/12 04:48:02;;;;;;;8.85;3.55;;;;;;;;;;5028195;28;20045;-75
2023/04/12 04:50:28;;;;;;;9.45;3.30;;;;;;;;;;5038999;28;20041;-75
2023/04/12 04:52:54;;;;;;;7.90;3.22;;;;;;;;;;5045098;28;20046;-75
2023/04/12 04:55:21;;;;;;;10.45;3.25;;;;;;;;;;5031944;28;20049;-75
2023/04/12 04:57:47;;;;;;;9.02;3.60;;;;;;;;;;5027082;28;20057;-75
2023/04/12 05:00:14;;;;;;;9.45;3.10;;;;;;;;;;5033144;28;20543;-75
2023/04/12 05:02:42;;;;;;;9.30;3.88;;;;;;;;;;5039880;28;20124;-75
2023/04/12 05:05:12;;;;;;;10.93;3.63;;;;;;;;;;5030021;28;20065;-75
2023/04/12 05:07:38;;;;;;;8.88;3.78;;;;;;;;;;5007700;28;20057;-75
2023/04/12 05:10:05;;;;;;;9.00;3.70;;;;;;;;;;5044575;28;20045;-75
2023/04/12 05:12:31;;;;;;;8.85;3.88;;;;;;;;;;5005894;28;20053;-76
2023/04/12 05:14:57;;;;;;;10.13;3.83;;;;;;;;;;5049855;28;20040;-75
2023/04/12 05:17:23;;;;;;;10.95;3.75;;;;;;;;;;5007996;28;20052;-75
2023/04/12 05:19:49;;;;;;;9.15;3.67;;;;;;;;;;5015156;28;20041;-75
2023/04/12 05:22:19;;;;;;;9.85;4.28;;;;;;;;;;5031901;28;20074;-75
2023/04/12 05:24:45;;;;;;;10.73;3.67;;;;;;;;;;5023230;28;20052;-75
2023/04/12 05:27:11;;;;;;;8.23;3.58;;;;;;;;;;5036579;28;20132;-75
2023/04/12 05:29:37;;;;;;;8.07;3.83;;;;;;;;;;5051235;28;20086;-75
2023/04/12 05:32:03;;;;;;;11.15;3.88;;;;;;;;;;5049678;28;20061;-75
2023/04/12 05:34:29;;;;;;;12.70;4.25;;;;;;;;;;5049439;28;20444;-75
2023/04/12 05:36:55;;;;;;;10.75;4.18;;;;;;;;;;5019093;28;20342;-75
2023/04/12 05:39:22;;;;;;;10.45;3.72;;;;;;;;;;5042773;28;20143;-76
2023/04/12 05:41:48;;;;;;;10.73;4.13;;;;;;;;;;5032703;28;20044;-76
2023/04/12 05:44:14;;;;;;;10.45;4.30;;;;;;;;;;5044665;28;20081;-76
2023/04/12 05:46:40;;;;;;;10.48;4.20;;;;;;;;;;5032131;28;20052;-77
2023/04/12 05:49:06;;;;;;;10.00;3.88;;;;;;;;;;5017468;28;20502;-76
2023/04/12 05:51:32;;;;;;;12.05;4.50;;;;;;;;;;5035003;28;20049;-76
2023/04/12 05:53:59;;;;;;;9.65;4.28;;;;;;;;;;5035986;28;20083;-77
2023/04/12 05:56:25;;;;;;;12.25;4.60;;;;;;;;;;5035339;28;20045;-77
2023/04/12 05:58:51;;;;;;;11.60;3.63;;;;;;;;;;5016851;28;20041;-77
2023/04/12 06:01:18;;;;;;;9.57;3.80;;;;;;;;;;5034844;28;20158;-76
2023/04/12 06:03:45;;;;;;;7.28;3.55;;;;;;;;;;5034939;28;20128;-76
2023/04/12 06:06:11;;;;;;;9.30;3.53;;;;;;;;;;5034608;28;20041;-76
2023/04/12 06:08:37;;;;;;;11.48;3.70;;;;;;;;;;5018148;28;20045;-75
2023/04/12 06:11:06;;;;;;;7.07;3.40;;;;;;;;;;5034703;28;20059;-77
2023/04/12 06:13:33;;;;;;;9.55;3.70;;;;;;;;;;5016878;28;20045;-76
2023/04/12 06:15:59;;;;;;;8.25;3.58;;;;;;;;;;5016876;28;20128;-77
2023/04/12 06:18:25;;;;;;;9.35;3.42;;;;;;;;;;5034788;28;20044;-76
2023/04/12 06:20:51;;;;;;;11.32;4.13;;;;;;;;;;5000379;28;20045;-77
2023/04/12 06:23:18;;;;;;;11.02;4.07;;;;;;;;;;5021720;28;20411;-76
2023/04/12 06:25:44;;;;;;;10.38;3.80;;;;;;;;;;5034527;28;20049;-76
2023/04/12 06:28:10;;;;;;;9.88;4.40;;;;;;;;;;5015515;28;20053;-75
2023/04/12 06:30:36;;;;;;;10.55;4.10;;;;;;;;;;5038089;28;20056;-76
2023/04/12 06:33:02;;;;;;;9.70;3.95;;;;;;;;;;5053939;28;20088;-76
2023/04/12 06:35:28;;;;;;;9.98;3.80;;;;;;;;;;5053132;28;20040;-76
2023/04/12 06:37:54;;;;;;;10.52;3.92;;;;;;;;;;5052030;28;20044;-76
2023/04/12 06:40:21;;;;;;;11.57;4.30;;;;;;;;;;5035762;28;20426;-76
2023/04/12 06:42:47;;;;;;;9.18;4.13;;;;;;;;;;5035756;28;20049;-76
2023/04/12 06:45:13;;;;;;;11.90;4.40;;;;;;;;;;5047038;28;20044;-75
2023/04/12 06:47:39;;;;;;;8.38;3.80;;;;;;;;;;5043993;28;20136;-76
2023/04/12 06:50:05;;;;;;;11.98;4.40;;;;;;;;;;5023093;28;20051;-75
2023/04/12 06:52:32;;;;;;;8.95;4.60;;;;;;;;;;5032409;28;20065;-76
2023/04/12 06:54:58;;;;;;;11.10;4.47;;;;;;;;;;5037652;28;20041;-77
2023/04/12 06:57:24;;;;;;;10.65;4.07;;;;;;;;;;5053063;28;20116;-76
2023/04/12 06:59:50;;;;;;;12.10;4.70;;;;;;;;;;5050954;28;20049;-76
2023/04/12 07:02:16;;;;;;;16.80;5.03;;;;;;;;;;5047537;28;20041;-76
2023/04/12 07:04:42;;;;;;;12.68;5.00;;;;;;;;;;5032657;28;20054;-75
2023/04/12 07:07:09;;;;;;;12.30;4.72;;;;;;;;;;5033070;28;20050;-75
2023/04/12 07:09:35;;;;;;;10.82;5.03;;;;;;;;;;5013467;28;20057;-75
2023/04/12 07:12:02;;;;;;;13.45;4.97;;;;;;;;;;5023761;28;20482;-75
2023/04/12 07:14:28;;;;;;;12.55;5.78;;;;;;;;;;5031804;28;20069;-76
2023/04/12 07:16:54;;;;;;;11.52;4.90;;;;;;;;;;5043518;28;20049;-76
2023/04/12 07:19:20;;;;;;;10.98;5.22;;;;;;;;;;5047506;28;20041;-76
2023/04/12 07:21:46;;;;;;;16.25;5.15;;;;;;;;;;5053249;28;20136;-77
2023/04/12 07:24:12;;;;;;;14.80;5.70;;;;;;;;;;5053554;28;20045;-79
2023/04/12 07:26:38;;;;;;;16.23;6.20;;;;;;;;;;5052986;28;20075;-77
2023/04/12 07:29:04;;;;;;;11.73;5.65;;;;;;;;;;5053219;28;20049;-77
2023/04/12 07:31:31;;;;;;;11.27;5.75;;;;;;;;;;5048233;28;20075;-77
2023/04/12 07:33:57;;;;;;;9.90;5.50;;;;;;;;;;5053149;28;20493;-77
2023/04/12 07:36:23;;;;;;;14.95;5.38;;;;;;;;;;5047313;28;20131;-77
2023/04/12 07:38:53;;;;;;;11.85;5.38;;;;;;;;;;5051845;28;20053;-77
2023/04/12 07:41:19;;;;;;;8.40;5.35;;;;;;;;;;5046732;28;20044;-77
2023/04/12 07:43:46;;;;;;;9.88;4.90;;;;;;;;;;5051093;28;20475;-76
2023/04/12 07:46:12;;;;;;;11.82;5.47;;;;;;;;;;5028187;28;20070;-78
2023/04/12 07:48:38;;;;;;;9.23;5.22;;;;;;;;;;5033454;28;20045;-77
2023/04/12 07:51:04;;;;;;;9.20;5.22;;;;;;;;;;5033558;28;20498;-77
2023/04/12 07:53:30;;;;;;;10.95;5.10;;;;;;;;;;5048314;28;20033;-77
2023/04/12 07:55:56;;;;;;;8.88;5.18;;;;;;;;;;5035060;28;20057;-77
2023/04/12 07:58:23;;;;;;;7.72;4.65;;;;;;;;;;5052247;28;20045;-77
2023/04/12 08:00:50;;;;;;;9.23;5.20;;;;;;;;;;5033476;28;20049;-77
2023/04/12 08:03:17;;;;;;;8.55;5.30;;;;;;;;;;5052304;28;20053;-77
2023/04/12 08:05:43;;;;;;;8.57;4.78;;;;;;;;;;5052453;28;20045;-77
2023/04/12 08:08:09;;;;;;;8.90;5.18;;;;;;;;;;5052391;28;20048;-76
2023/04/12 08:10:36;;;;;;;9.65;5.18;;;;;;;;;;5048149;28;20382;-76
2023/04/12 08:13:02;;;;;;;10.65;5.50;;;;;;;;;;5052196;28;20083;-78
2023/04/12 08:15:28;;;;;;;9.48;5.43;;;;;;;;;;5048391;28;20062;-76
2023/04/12 08:17:54;;;;;;;7.22;4.97;;;;;;;;;;5059096;28;20040;-76
2023/04/12 08:20:20;;;;;;;7.20;5.50;;;;;;;;;;5049016;28;20082;-77
2023/04/12 08:22:46;;;;;;;11.68;5.85;;;;;;;;;;5051214;28;20048;-77
2023/04/12 08:25:12;;;;;;;8.80;5.00;;;;;;;;;;5051481;28;20033;-77
2023/04/12 08:27:39;;;;;;;9.30;5.68;;;;;;;;;;5048998;28;20127;-77
2023/04/12 08:30:06;;;;;;;8.27;6.30;;;;;;;;;;5027559;28;20041;-77
2023/04/12 08:32:32;;;;;;;10.07;6.10;;;;;;;;;;5014935;28;20057;-77
2023/04/12 08:34:59;;;;;;;8.38;6.03;;;;;;;;;;5058358;28;20596;-77
2023/04/12 08:37:25;;;;;;;9.07;6.32;;;;;;;;;;5034081;28;20049;-77
2023/04/12 08:39:51;;;;;;;7.72;5.70;;;;;;;;;;5051256;28;20493;-77
2023/04/12 08:42:17;;;;;;;8.25;5.50;;;;;;;;;;5051974;28;20091;-77
2023/04/12 08:44:43;;;;;;;10.95;6.30;;;;;;;;;;5051549;28;20049;-77
2023/04/12 08:47:10;;;;;;;9.18;5.95;;;;;;;;;;5060206;28;20113;-77
2023/04/12 08:49:37;;;;;;;9.48;5.47;;;;;;;;;;5029925;28;20084;-77
2023/04/12 08:52:07;;;;;;;9.45;6.05;;;;;;;;;;5031683;28;20135;-76
2023/04/12 08:54:34;;;;;;;10.35;6.25;;;;;;;;;;5027241;28;20068;-76
2023/04/12 08:57:01;;;;;;;9.88;6.20;;;;;;;;;;5032848;28;20053;-76
2023/04/12 08:59:28;;;;;;;12.10;6.25;;;;;;;;;;5033395;28;20434;-77
2023/04/12 09:01:54;;;;;;;10.52;6.10;;;;;;;;;;5033896;28;20100;-77
2023/04/12 09:04:20;;;;;;;10.02;7.15;;;;;;;;;;5051805;28;20124;-78
2023/04/12 09:06:46;;;;;;;9.73;6.45;;;;;;;;;;5052186;28;20048;-76
2023/04/12 09:09:13;;;;;;;9.43;6.38;;;;;;;;;;5041924;28;20041;-76
2023/04/12 09:11:39;;;;;;;8.57;6.05;;;;;;;;;;5033846;28;20056;-77
2023/04/12 09:14:20;;;;;;;9.20;6.30;;;;;;;;;;5051562;28;20041;-77
2023/04/12 09:16:47;;;;;;;9.45;7.20;;;;;;;;;;5032491;28;20049;-77
2023/04/12 09:19:13;;;;;;;7.93;6.63;;;;;;;;;;5033158;28;20083;-77
2023/04/12 09:21:59;;;;;;;9.48;6.57;;;;;;;;;;5017440;28;20045;-76
2023/04/12 09:24:25;;;;;;;;;;;;;;;;;;5054980;28;20048;-76
2023/04/12 09:27:04;;;;;;;9.02;6.70;;;;;;;;;;5054641;28;19921;-76
2023/04/12 09:29:31;;;;;;;10.48;7.25;;;;;;;;;;5054725;28;20132;-76
2023/04/12 09:32:01;;;;;;;9.52;7.38;;;;;;;;;;5053359;28;20052;-77
2023/04/12 09:34:27;;;;;;;9.90;8.05;;;;;;;;;;5021001;28;20404;-77
2023/04/12 09:36:53;;;;;;;10.25;8.35;;;;;;;;;;5037341;28;20473;-76
2023/04/12 09:39:19;;;;;;;11.65;7.97;;;;;;;;;;5037685;28;20398;-78
2023/04/12 09:41:45;;;;;;;10.40;8.05;;;;;;;;;;5021402;28;20047;-78
2023/04/12 09:44:30;;;;;;;9.27;7.50;;;;;;;;;;5037475;28;20072;-78
2023/04/12 09:46:59;;;;;;;11.27;7.57;;;;;;;;;;5037183;28;20045;-77
2023/04/12 09:49:38;;;;;;;8.93;7.60;;;;;;;;;;5054891;28;20102;-78
2023/04/12 09:52:09;;;;;;;9.00;7.60;;;;;;;;;;5037241;28;20504;-77
2023/04/12 09:54:42;;;;;;;8.57;6.63;;;;;;;;;;5031857;28;20033;-77
2023/04/12 09:57:09;;;;;;;8.82;6.78;;;;;;;;;;5035784;28;20111;-77
2023/04/12 09:59:37;;;;;;;7.55;6.72;;;;;;;;;;5037389;28;20041;-78
2023/04/12 10:02:10;;;;;;;8.63;7.05;;;;;;;;;;5020622;28;20041;-77
2023/04/12 10:04:36;;;;;;;7.95;6.50;;;;;;;;;;5054712;28;20485;-77
2023/04/12 10:07:03;;;;;;;7.20;4.90;;;;;;;;;;5037030;28;20544;-77
2023/04/12 10:09:29;;;;;;;7.18;5.60;;;;;;;;;;5036938;28;20084;-78
2023/04/12 10:11:56;;;;;;;7.65;5.53;;;;;;;;;;5037242;28;20087;-78
2023/04/12 10:14:23;;;;;;;7.65;5.53;;;;;;;;;;5019756;28;20049;-78
2023/04/12 10:16:49;;;;;;;7.05;5.57;;;;;;;;;;5054725;28;20401;-77
2023/04/12 10:19:15;;;;;;;8.63;6.00;;;;;;;;;;5036979;28;20347;-79
2023/04/12 10:21:41;;;;;;;8.77;6.03;;;;;;;;;;5054550;28;20099;-79
2023/04/12 10:24:08;;;;;;;9.60;6.60;;;;;;;;;;5036006;28;20072;-78
2023/04/12 10:26:35;;;;;;;7.10;5.75;;;;;;;;;;5054600;28;20083;-76
2023/04/12 10:29:19;;;;;;;6.38;5.38;;;;;;;;;;5036724;28;20049;-79
2023/04/12 10:31:45;;;;;;;6.82;4.40;;;;;;;;;;5053957;28;20098;-76
2023/04/12 10:34:11;;;;;;;5.82;3.58;;;;;;;;;;5035226;28;20148;-77
2023/04/12 10:36:51;;;;;;;6.75;4.00;;;;;;;;;;5054308;28;20052;-77
2023/04/12 10:39:17;;;;;;;7.32;3.20;;;;;;;;;;5052626;28;20082;-77
2023/04/12 10:42:01;;;;;;;5.75;3.25;;;;;;;;;;5052251;28;20098;-77
2023/04/12 10:44:27;;;;;;;8.68;3.20;;;;;;;;;;5036140;28;20048;-76
2023/04/12 10:46:53;;;;;;;7.10;2.60;;;;;;;;;;5054347;28;20374;-78
2023/04/12 10:49:19;;;;;;;5.35;2.53;;;;;;;;;;5054134;28;20045;-77
2023/04/12 10:52:15;;;;;;;8.32;2.95;;;;;;;;;;5036395;28;20371;-78
2023/04/12 10:54:41;;;;;;;7.45;2.88;;;;;;;;;;5019790;28;20059;-78
2023/04/12 10:57:27;;;;;;;7.65;2.70;;;;;;;;;;5053228;28;20242;-77
2023/04/12 10:59:56;;;;;;;6.60;2.58;;;;;;;;;;5044909;28;20033;-77
2023/04/12 11:02:22;;;;;;;8.57;3.15;;;;;;;;;;5036923;28;20416;-76
2023/04/12 11:05:04;;;;;;;7.68;2.83;;;;;;;;;;5036187;28;20511;-77
2023/04/12 11:07:40;;;;;;;7.70;2.75;;;;;;;;;;5051886;28;20044;-78
2023/04/12 11:10:14;;;;;;;9.50;2.83;;;;;;;;;;5033780;28;20162;-78
2023/04/12 11:12:40;;;;;;;9.02;2.55;;;;;;;;;;5051821;28;20378;-77
2023/04/12 11:15:07;;;;;;;8.40;2.35;;;;;;;;;;5033301;28;20056;-76
2023/04/12 11:17:33;;;;;;;11.35;3.10;;;;;;;;;;5034071;28;20051;-78
2023/04/12 11:20:00;;;;;;;10.80;2.67;;;;;;;;;;5051224;28;20100;-77
2023/04/12 11:22:31;;;;;;;8.73;2.80;;;;;;;;;;5035386;28;20505;-77
2023/04/12 11:25:00;;;;;;;9.30;2.75;;;;;;;;;;5054635;28;20048;-77
2023/04/12 11:27:27;;;;;;;8.32;2.55;;;;;;;;;;5054273;28;20045;-77
2023/04/12 11:29:54;;;;;;;8.32;2.88;;;;;;;;;;5045191;28;20087;-77
2023/04/12 11:32:21;;;;;;;10.02;2.40;;;;;;;;;;5035399;28;20049;-77
2023/04/12 11:34:47;;;;;;;11.32;2.60;;;;;;;;;;5053051;28;20060;-77
2023/04/12 11:37:14;;;;;;;9.63;2.72;;;;;;;;;;5053682;28;20057;-76
2023/04/12 11:39:40;;;;;;;9.88;2.47;;;;;;;;;;5053517;28;20055;-77
2023/04/12 11:42:07;;;;;;;10.02;2.53;;;;;;;;;;5052770;28;20180;-77
2023/04/12 11:44:34;;;;;;;9.80;2.80;;;;;;;;;;5052766;28;20137;-77
2023/04/12 11:47:03;;;;;;;14.70;2.90;;;;;;;;;;5053458;28;20400;-76
2023/04/12 11:49:29;;;;;;;11.02;2.78;;;;;;;;;;5034813;28;20067;-78
2023/04/12 11:52:03;;;;;;;9.13;2.50;;;;;;;;;;5035187;28;20040;-79
2023/04/12 11:54:29;;;;;;;15.57;2.95;;;;;;;;;;5018460;28;20064;-78
2023/04/12 11:56:57;;;;;;;11.27;2.85;;;;;;;;;;5019030;28;20048;-77
2023/04/12 11:59:29;;;;;;;10.05;2.95;;;;;;;;;;5034688;28;20155;-77
2023/04/12 12:01:55;;;;;;;12.65;2.58;;;;;;;;;;5052927;28;20163;-80
2023/04/12 12:04:22;;;;;;;11.45;2.95;;;;;;;;;;5034926;28;20137;-78
2023/04/12 12:06:48;;;;;;;15.73;2.83;;;;;;;;;;5052609;28;20134;-77
2023/04/12 12:09:14;;;;;;;9.98;2.75;;;;;;;;;;5052882;28;20067;-77
2023/04/12 12:11:40;;;;;;;11.07;3.20;;;;;;;;;;5051538;28;20045;-77
2023/04/12 12:14:07;;;;;;;11.10;3.20;;;;;;;;;;5052133;28;20044;-78
2023/04/12 12:16:34;;;;;;;15.15;3.00;;;;;;;;;;5052658;28;20159;-77
2023/04/12 12:19:03;;;;;;;16.17;3.13;;;;;;;;;;5052598;28;20088;-79
2023/04/12 12:21:30;;;;;;;14.05;2.80;;;;;;;;;;5050286;28;20120;-76
2023/04/12 12:23:57;;;;;;;11.48;2.70;;;;;;;;;;5051834;28;20104;-78
2023/04/12 12:26:27;;;;;;;11.73;3.13;;;;;;;;;;5034096;28;20060;-77
2023/04/12 12:28:54;;;;;;;13.77;2.92;;;;;;;;;;5032891;28;20393;-76
2023/04/12 12:31:21;;;;;;;12.98;2.80;;;;;;;;;;5051873;28;20057;-77
2023/04/12 12:33:48;;;;;;;10.77;2.47;;;;;;;;;;5032388;28;20057;-77
2023/04/12 12:36:19;;;;;;;12.13;2.75;;;;;;;;;;5041091;28;20045;-77
2023/04/12 12:38:47;;;;;;;12.90;2.60;;;;;;;;;;5032457;28;20048;-77
2023/04/12 12:41:23;;;;;;;10.93;2.63;;;;;;;;;;5015842;28;20041;-76
2023/04/12 12:43:50;;;;;;;12.88;2.55;;;;;;;;;;5032878;28;20124;-78
2023/04/12 12:46:16;;;;;;;13.77;2.75;;;;;;;;;;5052273;28;20131;-77
2023/04/12 12:48:43;;;;;;;11.23;2.70;;;;;;;;;;5015699;28;20137;-78
2023/04/12 12:51:10;;;;;;;12.90;3.13;;;;;;;;;;5032254;28;20041;-77
2023/04/12 12:53:37;;;;;;;16.75;3.65;;;;;;;;;;5032184;28;20409;-77
2023/04/12 12:56:03;;;;;;;18.73;3.45;;;;;;;;;;5032174;28;20045;-77
2023/04/12 12:58:29;;;;;;;15.55;3.10;;;;;;;;;;5035909;28;20053;-77
2023/04/12 13:00:55;;;;;;;14.50;3.25;;;;;;;;;;5018580;28;20045;-78
2023/04/12 13:03:21;;;;;;;13.27;3.65;;;;;;;;;;5018512;28;20137;-77
2023/04/12 13:05:47;;;;;;;11.13;2.80;;;;;;;;;;5018466;28;20050;-78
2023/04/12 13:08:13;;;;;;;10.50;2.90;;;;;;;;;;5018575;28;20045;-77
2023/04/12 13:10:39;;;;;;;11.02;2.80;;;;;;;;;;5018542;28;20047;-78
2023/04/12 13:13:05;;;;;;;11.43;2.70;;;;;;;;;;5018672;28;20370;-77
2023/04/12 13:15:31;;;;;;;11.70;2.63;;;;;;;;;;5036103;28;20045;-78
2023/04/12 13:17:57;;;;;;;10.40;2.30;;;;;;;;;;5001986;28;20048;-78
2023/04/12 13:20:24;;;;;;;10.80;2.50;;;;;;;;;;5018230;28;20049;-78
2023/04/12 13:22:51;;;;;;;12.73;2.95;;;;;;;;;;5036564;28;20071;-76
2023/04/12 13:25:18;;;;;;;9.98;2.55;;;;;;;;;;5036042;28;20041;-77
2023/04/12 13:27:45;;;;;;;14.35;3.10;;;;;;;;;;5018585;28;20042;-78
2023/04/12 13:30:11;;;;;;;10.90;2.58;;;;;;;;;;5037974;28;20052;-78
2023/04/12 13:32:37;;;;;;;9.77;2.67;;;;;;;;;;5021531;28;20386;-78
2023/04/12 13:35:03;;;;;;;13.32;3.10;;;;;;;;;;5055639;28;20048;-78
2023/04/12 13:37:30;;;;;;;11.48;2.70;;;;;;;;;;5037523;28;20120;-78
2023/04/12 13:39:56;;;;;;;13.20;2.63;;;;;;;;;;5037667;28;20045;-78
2023/04/12 13:42:23;;;;;;;10.75;2.65;;;;;;;;;;5037619;28;20489;-78
2023/04/12 13:44:49;;;;;;;10.25;2.65;;;;;;;;;;5055424;28;20382;-77
2023/04/12 13:47:16;;;;;;;14.00;2.88;;;;;;;;;;5048829;28;20406;-77
2023/04/12 13:49:42;;;;;;;11.02;2.83;;;;;;;;;;5017574;28;20088;-78
2023/04/12 13:52:09;;;;;;;15.50;3.03;;;;;;;;;;5035532;28;20412;-77
2023/04/12 13:54:35;;;;;;;8.10;2.42;;;;;;;;;;5000658;28;20383;-78
2023/04/12 13:57:02;;;;;;;7.82;2.50;;;;;;;;;;5015531;28;20051;-77
2023/04/12 13:59:29;;;;;;;9.23;2.47;;;;;;;;;;5033673;28;20398;-77
2023/04/12 14:01:55;;;;;;;7.28;2.22;;;;;;;;;;5016071;28;20140;-77
2023/04/12 14:04:21;;;;;;;9.63;1.88;;;;;;;;;;5015523;28;20390;-77
2023/04/12 14:06:48;;;;;;;5.30;1.48;;;;;;;;;;5017958;28;20498;-78
2023/04/12 14:09:26;;;;;;;5.20;1.98;;;;;;;;;;5017086;28;20041;-77
2023/04/12 14:11:54;;;;;;;8.07;1.90;;;;;;;;;;5000849;28;20471;-77
2023/04/12 14:14:21;;;;;;;8.55;2.00;;;;;;;;;;5034719;28;20512;-77
2023/04/12 14:16:49;;;;;;;7.63;1.92;;;;;;;;;;5017161;28;20068;-77
2023/04/12 14:19:15;;;;;;;6.80;2.00;;;;;;;;;;5015079;28;20044;-78
2023/04/12 14:21:41;;;;;;;5.75;1.80;;;;;;;;;;5017073;28;20057;-78
2023/04/12 14:24:07;;;;;;;6.25;1.77;;;;;;;;;;5017041;28;20076;-77
2023/04/12 14:26:33;;;;;;;6.95;2.00;;;;;;;;;;5035016;28;20332;-78
2023/04/12 14:28:59;;;;;;;9.07;2.00;;;;;;;;;;5034752;28;20094;-78
2023/04/12 14:31:25;;;;;;;8.75;2.10;;;;;;;;;;5034181;28;20061;-77
2023/04/12 14:33:53;;;;;;;6.85;2.08;;;;;;;;;;5035907;28;20403;-77
2023/04/12 14:36:19;;;;;;;9.68;2.45;;;;;;;;;;5038398;28;20463;-78
2023/04/12 14:38:48;;;;;;;12.20;2.70;;;;;;;;;;5019147;28;20147;-76
2023/04/12 14:41:15;;;;;;;9.25;2.22;;;;;;;;;;5034758;28;20037;-77